Rollingstone/Halifax Bay, Australia
Current Conditions -  °F | °C
As of 4:30 PM on Sunday 26 Oct 2014 (Local Time) from YBTL Reporting Station
Clear Clear  
Wind Chill: 79°   Ceiling: Unl
Heat Index: 80°   Visibility: 6mi
Dew Point: 63°   Wind: 15mph
Humidity: 57%   Direction: 70°ENE
Pressure: 29.94"   Gusts: NA
Location:  18.83°S, 146.5°E
Report Text: YBTL 260630Z 07013KT CAVOK 26/17 Q1014
Loading
Personal Weather Stations






























Interactive Weather Map
Tropical Storm Tracking
New forecast layout! Learn more

10-Day Weather Forecast

Advertisements
Track Severe Weather on mobile